createdAt,value
2022-09-24T00:01:33.126Z,100.00
2022-09-24T00:04:05.386Z,100.00
2022-09-24T00:06:44.668Z,100.00
2022-09-24T00:09:13.712Z,100.00
2022-09-24T00:11:52.593Z,100.00
2022-09-24T00:14:20.627Z,100.00
2022-09-24T00:16:48.646Z,100.00
2022-09-24T00:19:15.667Z,100.00
2022-09-24T00:21:57.711Z,100.00
2022-09-24T00:24:51.954Z,100.00
2022-09-24T00:27:30.831Z,100.00
2022-09-24T00:30:25.127Z,100.00
2022-09-24T00:32:51.988Z,100.00
2022-09-24T00:35:22.601Z,100.00
2022-09-24T00:38:06.143Z,100.00
2022-09-24T00:41:02.009Z,100.00
2022-09-24T00:43:56.380Z,100.00
2022-09-24T00:46:30.158Z,100.00
2022-09-24T00:49:17.878Z,100.00
2022-09-24T00:51:50.601Z,100.00
2022-09-24T00:54:26.823Z,100.00
2022-09-24T00:56:55.405Z,100.00
2022-09-24T00:59:25.451Z,100.00
2022-09-24T01:01:59.392Z,100.00
2022-09-24T01:04:32.622Z,100.00
2022-09-24T01:06:59.735Z,100.00
2022-09-24T01:09:28.496Z,100.00
2022-09-24T01:12:05.269Z,100.00
2022-09-24T01:14:53.243Z,100.00
2022-09-24T01:17:42.416Z,100.00
2022-09-24T01:20:33.761Z,100.00
2022-09-24T01:23:21.446Z,100.00
2022-09-24T01:26:29.380Z,100.00
2022-09-24T01:29:22.528Z,100.00
2022-09-24T01:31:57.226Z,100.00
2022-09-24T01:34:36.906Z,100.00
2022-09-24T01:37:04.987Z,100.00
2022-09-24T01:39:38.545Z,100.00
2022-09-24T01:42:10.728Z,100.00
2022-09-24T01:44:39.133Z,100.00
2022-09-24T01:47:18.929Z,100.00
2022-09-24T01:49:46.813Z,100.00
2022-09-24T01:52:20.292Z,100.00
2022-09-24T01:54:52.678Z,100.00
2022-09-24T01:57:28.396Z,100.00
2022-09-24T02:00:06.033Z,100.00
2022-09-24T02:02:44.357Z,100.00
2022-09-24T02:05:44.681Z,100.00
2022-09-24T02:08:23.496Z,100.00
2022-09-24T02:11:14.346Z,100.00
2022-09-24T02:14:06.964Z,100.00
2022-09-24T02:16:45.832Z,100.00
2022-09-24T02:19:18.861Z,100.00
2022-09-24T02:21:47.303Z,100.00
2022-09-24T02:24:30.802Z,100.00
2022-09-24T02:26:58.082Z,100.00
2022-09-24T02:29:25.450Z,100.00
2022-09-24T02:31:56.111Z,100.00
2022-09-24T02:34:40.636Z,100.00
2022-09-24T02:37:14.434Z,100.00
2022-09-24T02:39:43.073Z,100.00
2022-09-24T02:42:13.877Z,100.00
2022-09-24T02:44:40.869Z,100.00
2022-09-24T02:47:08.870Z,100.00
2022-09-24T02:49:36.351Z,100.00
2022-09-24T02:52:04.819Z,100.00
2022-09-24T02:54:34.416Z,100.00
2022-09-24T02:57:01.377Z,100.00
2022-09-24T02:59:29.502Z,100.00
2022-09-24T03:01:57.738Z,100.00
2022-09-24T03:04:27.000Z,100.00
2022-09-24T03:06:56.010Z,100.00
2022-09-24T03:09:29.124Z,100.00
2022-09-24T03:12:01.054Z,100.00
2022-09-24T03:14:28.740Z,100.00
2022-09-24T03:16:56.761Z,100.00
2022-09-24T03:19:24.853Z,100.00
2022-09-24T03:21:51.877Z,100.00
2022-09-24T03:24:19.970Z,100.00
2022-09-24T03:26:47.934Z,100.00
2022-09-24T03:29:16.123Z,100.00
2022-09-24T03:31:49.120Z,100.00
2022-09-24T03:34:18.149Z,100.00
2022-09-24T03:36:46.097Z,100.00
2022-09-24T03:39:13.137Z,100.00
2022-09-24T03:41:46.118Z,100.00
2022-09-24T03:44:13.145Z,100.00
2022-09-24T03:46:42.162Z,100.00
2022-09-24T03:49:09.297Z,100.00
2022-09-24T03:51:38.448Z,100.00
2022-09-24T03:54:05.543Z,100.00
2022-09-24T03:56:32.591Z,100.00
2022-09-24T03:58:59.611Z,100.00
2022-09-24T04:01:28.932Z,100.00
2022-09-24T04:03:57.003Z,100.00
2022-09-24T04:06:28.239Z,100.00
2022-09-24T04:08:56.310Z,100.00
2022-09-24T04:11:25.313Z,100.00
2022-09-24T04:13:52.660Z,100.00
2022-09-24T04:16:22.983Z,100.00
2022-09-24T04:18:51.380Z,100.00
2022-09-24T04:21:18.552Z,100.00
2022-09-24T04:23:46.767Z,100.00
2022-09-24T04:26:13.998Z,100.00
2022-09-24T04:28:42.192Z,100.00
2022-09-24T04:31:15.003Z,100.00
2022-09-24T04:33:48.145Z,100.00
2022-09-24T04:36:16.357Z,100.00
2022-09-24T04:38:46.628Z,100.00
2022-09-24T04:41:16.190Z,100.00
2022-09-24T04:43:47.896Z,100.00
2022-09-24T04:46:16.428Z,100.00
2022-09-24T04:48:43.793Z,100.00
2022-09-24T04:51:10.960Z,100.00
2022-09-24T04:53:38.309Z,100.00
2022-09-24T04:56:12.338Z,100.00
2022-09-24T04:59:03.611Z,100.00
2022-09-24T05:01:30.556Z,100.00
2022-09-24T05:03:57.661Z,100.00
2022-09-24T05:06:24.894Z,100.00
2022-09-24T05:08:51.892Z,100.00
2022-09-24T05:11:20.121Z,100.00
2022-09-24T05:13:48.145Z,100.00
2022-09-24T05:16:15.169Z,100.00
2022-09-24T05:18:45.283Z,100.00
2022-09-24T05:21:14.287Z,100.00
2022-09-24T05:23:43.303Z,100.00
2022-09-24T05:26:29.611Z,100.00
2022-09-24T05:28:57.570Z,100.00
2022-09-24T05:31:24.686Z,100.00
2022-09-24T05:33:55.044Z,100.00
2022-09-24T05:36:24.383Z,100.00
2022-09-24T05:38:51.367Z,100.00
2022-09-24T05:41:19.843Z,100.00
2022-09-24T05:43:49.591Z,100.00
2022-09-24T05:46:20.820Z,100.00
2022-09-24T05:48:48.061Z,100.00
2022-09-24T05:51:21.137Z,100.00
2022-09-24T05:53:48.768Z,98.99
2022-09-24T05:56:18.407Z,98.84
2022-09-24T05:58:50.065Z,99.20
2022-09-24T06:01:18.283Z,99.01
2022-09-24T06:03:45.277Z,98.13
2022-09-24T06:06:15.323Z,98.23
2022-09-24T06:08:42.649Z,97.76
2022-09-24T06:11:09.855Z,97.48
2022-09-24T06:13:37.835Z,97.77
2022-09-24T06:16:08.944Z,96.92
2022-09-24T06:18:43.678Z,96.69
2022-09-24T06:21:16.029Z,96.16
2022-09-24T06:23:43.086Z,95.77
2022-09-24T06:26:12.398Z,95.91
2022-09-24T06:28:42.058Z,95.38
2022-09-24T06:31:12.238Z,95.57
2022-09-24T06:33:40.759Z,95.56
2022-09-24T06:36:08.401Z,95.74
2022-09-24T06:38:36.761Z,95.91
2022-09-24T06:41:05.541Z,94.59
2022-09-24T06:43:34.713Z,94.57
2022-09-24T06:46:02.380Z,94.08
2022-09-24T06:48:31.648Z,93.68
2022-09-24T06:50:58.811Z,93.89
2022-09-24T06:53:26.998Z,94.16
2022-09-24T06:55:58.974Z,92.81
2022-09-24T06:58:26.678Z,92.28
2022-09-24T07:01:04.400Z,92.17
2022-09-24T07:03:34.119Z,91.34
2022-09-24T07:06:05.018Z,91.36
2022-09-24T07:08:35.150Z,91.32
2022-09-24T07:11:03.151Z,90.58
2022-09-24T07:13:31.309Z,89.90
2022-09-24T07:15:58.389Z,89.94
2022-09-24T07:18:32.669Z,90.22
2022-09-24T07:20:59.739Z,90.54
2022-09-24T07:23:33.634Z,90.63
2022-09-24T07:26:00.824Z,90.36
2022-09-24T07:28:27.997Z,89.69
2022-09-24T07:31:02.109Z,87.31
2022-09-24T07:33:34.004Z,87.62
2022-09-24T07:36:07.321Z,86.83
2022-09-24T07:38:36.557Z,85.26
2022-09-24T07:41:06.306Z,85.54
2022-09-24T07:43:34.012Z,85.91
2022-09-24T07:46:03.158Z,85.42
2022-09-24T07:48:30.306Z,84.95
2022-09-24T07:50:57.481Z,84.36
2022-09-24T07:53:25.557Z,84.65
2022-09-24T07:55:53.815Z,83.99
2022-09-24T07:58:20.982Z,84.02
2022-09-24T08:00:54.025Z,82.65
2022-09-24T08:03:22.723Z,82.39
2022-09-24T08:05:49.840Z,82.65
2022-09-24T08:08:16.900Z,81.76
2022-09-24T08:10:43.975Z,80.19
2022-09-24T08:13:11.337Z,79.31
2022-09-24T08:15:38.611Z,78.82
2022-09-24T08:18:07.430Z,80.30
2022-09-24T08:20:36.437Z,79.01
2022-09-24T08:23:12.940Z,78.41
2022-09-24T08:25:46.031Z,77.47
2022-09-24T08:28:13.071Z,77.74
2022-09-24T08:30:41.145Z,77.42
2022-09-24T08:33:08.614Z,76.57
2022-09-24T08:35:36.947Z,75.80
2022-09-24T08:38:04.907Z,76.09
2022-09-24T08:40:55.956Z,74.53
2022-09-24T08:43:48.964Z,75.12
2022-09-24T08:46:43.624Z,76.49
2022-09-24T08:49:18.325Z,76.17
2022-09-24T08:52:04.240Z,75.66
2022-09-24T08:54:35.299Z,74.75
2022-09-24T08:57:12.319Z,72.67
2022-09-24T08:59:45.343Z,73.59
2022-09-24T09:02:24.093Z,72.97
2022-09-24T09:05:18.835Z,74.28
2022-09-24T09:08:03.275Z,73.03
2022-09-24T09:10:36.495Z,71.37
2022-09-24T09:13:26.334Z,69.93
2022-09-24T09:16:34.818Z,68.67
2022-09-24T09:19:14.112Z,69.41
2022-09-24T09:21:42.200Z,70.47
2022-09-24T09:24:19.044Z,70.90
2022-09-24T09:26:56.996Z,69.63
2022-09-24T09:29:35.342Z,68.78
2022-09-24T09:32:14.142Z,70.08
2022-09-24T09:35:09.221Z,72.53
2022-09-24T09:37:58.085Z,71.35
2022-09-24T09:40:48.930Z,71.50
2022-09-24T09:43:18.990Z,69.09
2022-09-24T09:46:04.958Z,68.56
2022-09-24T09:48:47.023Z,69.89
2022-09-24T09:51:27.087Z,67.04
2022-09-24T09:53:57.194Z,66.23
2022-09-24T09:56:42.306Z,67.01
2022-09-24T09:59:12.464Z,65.89
2022-09-24T10:01:58.092Z,66.28
2022-09-24T10:04:43.824Z,68.41
2022-09-24T10:07:12.129Z,67.84
2022-09-24T10:09:42.649Z,67.23
2022-09-24T10:12:22.476Z,67.34
2022-09-24T10:15:02.020Z,66.76
2022-09-24T10:17:34.082Z,66.36
2022-09-24T10:20:03.035Z,66.60
2022-09-24T10:22:31.006Z,66.98
2022-09-24T10:25:01.519Z,66.49
2022-09-24T10:27:34.676Z,67.06
2022-09-24T10:30:34.670Z,63.66
2022-09-24T10:33:05.475Z,60.68
2022-09-24T10:35:36.191Z,59.68
2022-09-24T10:38:16.759Z,60.20
2022-09-24T10:40:54.698Z,59.89
2022-09-24T10:43:22.704Z,60.60
2022-09-24T10:46:21.935Z,59.66
2022-09-24T10:49:26.031Z,54.28
2022-09-24T10:52:18.697Z,55.13
2022-09-24T10:54:57.353Z,49.90
2022-09-24T10:57:43.264Z,48.33
2022-09-24T11:00:11.192Z,43.04
2022-09-24T11:03:10.115Z,45.36
2022-09-24T11:05:50.553Z,46.92
2022-09-24T11:08:55.673Z,47.91
2022-09-24T11:11:32.229Z,48.92
2022-09-24T11:14:19.045Z,46.85
2022-09-24T11:17:14.184Z,48.55
2022-09-24T11:20:10.311Z,48.40
2022-09-24T11:22:50.300Z,47.42
2022-09-24T11:25:38.336Z,44.40
2022-09-24T11:28:15.079Z,44.32
2022-09-24T11:30:58.064Z,41.96
2022-09-24T11:34:11.192Z,43.77
2022-09-24T11:36:51.721Z,44.98
2022-09-24T11:40:10.197Z,40.73
2022-09-24T11:43:03.298Z,41.81
2022-09-24T11:45:41.552Z,42.05
2022-09-24T11:48:56.413Z,42.78
2022-09-24T11:51:44.129Z,40.98
2022-09-24T11:54:39.454Z,40.72
2022-09-24T11:57:22.739Z,40.54
2022-09-24T12:00:16.582Z,42.07
2022-09-24T12:03:18.405Z,41.62
2022-09-24T12:06:03.420Z,40.83
2022-09-24T12:08:40.167Z,38.55
2022-09-24T12:12:02.770Z,38.86
2022-09-24T12:14:58.739Z,41.59
2022-09-24T12:18:02.859Z,42.88
2022-09-24T12:20:33.954Z,44.29
2022-09-24T12:23:11.898Z,45.63
2022-09-24T12:25:53.572Z,45.46
2022-09-24T12:29:29.069Z,43.71
2022-09-24T12:32:35.551Z,43.48
2022-09-24T12:35:41.414Z,44.05
2022-09-24T12:38:42.756Z,44.72
2022-09-24T12:41:29.796Z,45.92
2022-09-24T12:44:11.719Z,43.54
2022-09-24T12:46:45.047Z,44.63
2022-09-24T12:49:25.327Z,44.31
2022-09-24T12:51:57.950Z,44.93
2022-09-24T12:54:35.437Z,46.22
2022-09-24T12:57:24.959Z,44.70
2022-09-24T12:59:58.998Z,44.38
2022-09-24T13:02:31.564Z,41.04
2022-09-24T13:05:02.703Z,39.41
2022-09-24T13:07:37.600Z,38.33
2022-09-24T13:10:17.782Z,36.33
2022-09-24T13:12:51.886Z,35.04
2022-09-24T13:15:41.191Z,35.58
2022-09-24T13:18:11.445Z,35.96
2022-09-24T13:20:49.975Z,35.79
2022-09-24T13:23:29.698Z,33.74
2022-09-24T13:26:03.264Z,34.82
2022-09-24T13:29:01.374Z,34.46
2022-09-24T13:31:29.455Z,33.78
2022-09-24T13:34:06.555Z,34.02
2022-09-24T13:37:04.623Z,35.32
2022-09-24T13:39:47.309Z,33.87
2022-09-24T13:42:53.925Z,34.13
2022-09-24T13:45:23.977Z,33.40
2022-09-24T13:48:02.842Z,32.98
2022-09-24T13:50:36.221Z,34.66
2022-09-24T13:53:24.768Z,36.71
2022-09-24T13:56:07.535Z,37.62
2022-09-24T13:58:56.310Z,37.71
2022-09-24T14:01:35.748Z,37.43
2022-09-24T14:04:17.295Z,37.60
2022-09-24T14:06:53.042Z,36.54
2022-09-24T14:09:35.974Z,38.10
2022-09-24T14:12:24.253Z,39.98
2022-09-24T14:14:58.509Z,41.31
2022-09-24T14:17:26.760Z,42.74
2022-09-24T14:20:00.058Z,42.36
2022-09-24T14:22:39.445Z,41.75
2022-09-24T14:25:17.222Z,39.48
2022-09-24T14:27:51.719Z,38.51
2022-09-24T14:30:27.744Z,37.27
2022-09-24T14:33:07.432Z,36.52
2022-09-24T14:35:37.421Z,36.75
2022-09-24T14:38:19.848Z,38.00
2022-09-24T14:41:02.815Z,38.86
2022-09-24T14:43:31.849Z,40.28
2022-09-24T14:46:09.802Z,40.56
2022-09-24T14:48:36.904Z,40.11
2022-09-24T14:51:04.248Z,40.02
2022-09-24T14:53:37.483Z,40.36
2022-09-24T14:56:33.350Z,40.84
2022-09-24T14:59:01.646Z,41.11
2022-09-24T15:01:37.916Z,41.09
2022-09-24T15:04:20.775Z,41.26
2022-09-24T15:06:54.967Z,41.05
2022-09-24T15:09:32.123Z,42.05
2022-09-24T15:12:10.352Z,42.39
2022-09-24T15:14:40.101Z,42.48
2022-09-24T15:17:21.613Z,43.44
2022-09-24T15:20:00.833Z,44.11
2022-09-24T15:22:35.783Z,43.94
2022-09-24T15:25:04.388Z,44.66
2022-09-24T15:27:39.976Z,45.14
2022-09-24T15:30:18.213Z,45.47
2022-09-24T15:32:54.435Z,46.57
2022-09-24T15:35:21.585Z,47.12
2022-09-24T15:37:49.824Z,47.87
2022-09-24T15:40:22.959Z,47.59
2022-09-24T15:42:50.574Z,47.20
2022-09-24T15:45:21.692Z,47.82
2022-09-24T15:47:53.959Z,47.69
2022-09-24T15:50:24.284Z,48.26
2022-09-24T15:52:57.036Z,48.67
2022-09-24T15:55:24.421Z,48.10
2022-09-24T15:57:51.465Z,48.78
2022-09-24T16:00:22.493Z,49.47
2022-09-24T16:02:56.886Z,48.64
2022-09-24T16:05:24.698Z,49.31
2022-09-24T16:07:52.735Z,51.04
2022-09-24T16:10:19.789Z,51.13
2022-09-24T16:12:46.911Z,52.04
2022-09-24T16:15:16.753Z,52.51
2022-09-24T16:17:44.063Z,53.42
2022-09-24T16:20:11.292Z,54.09
2022-09-24T16:22:38.457Z,54.34
2022-09-24T16:25:06.127Z,55.04
2022-09-24T16:27:39.351Z,56.01
2022-09-24T16:30:08.315Z,56.54
2022-09-24T16:32:35.392Z,57.73
2022-09-24T16:35:02.521Z,58.83
2022-09-24T16:37:31.922Z,59.89
2022-09-24T16:39:59.998Z,60.81
2022-09-24T16:42:34.572Z,61.90
2022-09-24T16:45:02.479Z,62.75
2022-09-24T16:47:31.236Z,63.53
2022-09-24T16:50:00.312Z,65.15
2022-09-24T16:52:30.479Z,66.45
2022-09-24T16:54:58.733Z,67.50
2022-09-24T16:57:25.888Z,68.83
2022-09-24T16:59:54.017Z,70.11
2022-09-24T17:02:22.127Z,71.51
2022-09-24T17:04:53.883Z,73.69
2022-09-24T17:07:31.209Z,73.99
2022-09-24T17:10:14.563Z,74.47
2022-09-24T17:12:56.092Z,74.80
2022-09-24T17:15:24.253Z,74.61
2022-09-24T17:17:53.276Z,75.31
2022-09-24T17:20:21.704Z,75.29
2022-09-24T17:23:01.013Z,75.86
2022-09-24T17:25:31.141Z,75.71
2022-09-24T17:28:16.762Z,76.34
2022-09-24T17:31:04.254Z,77.04
2022-09-24T17:33:46.661Z,78.03
2022-09-24T17:36:17.895Z,79.09
2022-09-24T17:38:52.177Z,79.59
2022-09-24T17:41:50.399Z,80.76
2022-09-24T17:44:20.325Z,82.34
2022-09-24T17:46:49.442Z,83.01
2022-09-24T17:49:21.521Z,83.29
2022-09-24T17:52:01.762Z,81.71
2022-09-24T17:54:29.131Z,84.38
2022-09-24T17:56:57.200Z,84.08
2022-09-24T17:59:30.060Z,84.31
2022-09-24T18:02:09.723Z,84.72
2022-09-24T18:04:50.669Z,84.75
2022-09-24T18:07:34.018Z,84.70
2022-09-24T18:10:12.173Z,85.57
2022-09-24T18:12:50.113Z,85.87
2022-09-24T18:15:26.839Z,86.21
2022-09-24T18:17:54.660Z,85.79
2022-09-24T18:20:26.682Z,85.31
2022-09-24T18:22:59.482Z,84.88
2022-09-24T18:25:34.274Z,84.30
2022-09-24T18:28:06.322Z,84.15
2022-09-24T18:30:34.530Z,83.95
2022-09-24T18:33:03.284Z,83.87
2022-09-24T18:35:32.491Z,83.87
2022-09-24T18:38:01.530Z,83.65
2022-09-24T18:40:31.299Z,84.43
2022-09-24T18:43:00.837Z,84.57
2022-09-24T18:45:28.578Z,85.55
2022-09-24T18:47:55.810Z,86.05
2022-09-24T18:50:28.547Z,87.19
2022-09-24T18:52:56.592Z,88.13
2022-09-24T18:55:27.681Z,88.87
2022-09-24T18:57:54.834Z,88.32
2022-09-24T19:00:40.520Z,86.71
2022-09-24T19:03:07.659Z,85.77
2022-09-24T19:05:38.759Z,85.82
2022-09-24T19:08:06.024Z,85.85
2022-09-24T19:10:34.076Z,86.25
2022-09-24T19:13:04.800Z,86.39
2022-09-24T19:15:35.774Z,87.23
2022-09-24T19:18:04.057Z,88.23
2022-09-24T19:20:31.258Z,88.17
2022-09-24T19:23:00.969Z,88.38
2022-09-24T19:25:35.324Z,88.88
2022-09-24T19:28:04.549Z,89.64
2022-09-24T19:30:38.813Z,90.11
2022-09-24T19:33:06.076Z,90.85
2022-09-24T19:35:33.935Z,93.00
2022-09-24T19:38:06.962Z,94.86
2022-09-24T19:40:41.061Z,95.34
2022-09-24T19:43:08.202Z,95.61
2022-09-24T19:45:36.670Z,96.00
2022-09-24T19:48:07.682Z,95.88
2022-09-24T19:50:35.397Z,94.76
2022-09-24T19:53:05.508Z,94.11
2022-09-24T19:55:35.477Z,93.89
2022-09-24T19:58:02.683Z,94.45
2022-09-24T20:00:31.634Z,94.89
2022-09-24T20:02:59.704Z,93.56
2022-09-24T20:05:26.889Z,93.29
2022-09-24T20:07:54.975Z,92.16
2022-09-24T20:10:22.401Z,94.19
2022-09-24T20:12:52.171Z,94.99
2022-09-24T20:15:20.707Z,96.03
2022-09-24T20:17:48.960Z,96.50
2022-09-24T20:20:18.439Z,97.15
2022-09-24T20:22:45.588Z,97.32
2022-09-24T20:25:14.001Z,96.95
2022-09-24T20:27:55.614Z,95.77
2022-09-24T20:30:24.122Z,95.79
2022-09-24T20:32:51.300Z,95.77
2022-09-24T20:35:19.309Z,95.97
2022-09-24T20:37:48.569Z,96.02
2022-09-24T20:40:16.602Z,95.16
2022-09-24T20:42:43.663Z,95.12
2022-09-24T20:45:24.346Z,94.80
2022-09-24T20:47:53.319Z,94.01
2022-09-24T20:50:20.432Z,92.89
2022-09-24T20:52:58.732Z,92.10
2022-09-24T20:55:25.852Z,91.52
2022-09-24T20:57:52.889Z,90.94
2022-09-24T21:00:25.340Z,91.66
2022-09-24T21:02:53.361Z,92.71
2022-09-24T21:05:26.535Z,93.72
2022-09-24T21:07:59.482Z,93.98
2022-09-24T21:10:32.603Z,92.76
2022-09-24T21:12:59.606Z,92.44
2022-09-24T21:15:26.838Z,92.11
2022-09-24T21:18:21.289Z,91.87
2022-09-24T21:20:50.595Z,92.09
2022-09-24T21:23:18.512Z,92.55
2022-09-24T21:26:00.721Z,93.51
2022-09-24T21:28:33.891Z,94.74
2022-09-24T21:31:07.579Z,95.38
2022-09-24T21:33:35.877Z,96.48
2022-09-24T21:36:05.220Z,97.85
2022-09-24T21:38:38.837Z,98.94
2022-09-24T21:41:08.766Z,99.57
2022-09-24T21:43:36.241Z,98.93
2022-09-24T21:46:07.002Z,98.13
2022-09-24T21:48:35.452Z,97.85
2022-09-24T21:51:07.988Z,97.48
2022-09-24T21:53:37.176Z,97.12
2022-09-24T21:56:05.150Z,96.75
2022-09-24T21:58:33.411Z,96.55
2022-09-24T22:01:05.099Z,96.16
2022-09-24T22:03:32.703Z,95.97
2022-09-24T22:06:03.556Z,95.64
2022-09-24T22:08:32.751Z,95.92
2022-09-24T22:11:11.328Z,96.00
2022-09-24T22:13:39.480Z,96.31
2022-09-24T22:16:11.059Z,96.41
2022-09-24T22:18:39.457Z,95.94
2022-09-24T22:21:13.385Z,95.42
2022-09-24T22:23:41.077Z,95.57
2022-09-24T22:26:10.783Z,94.58
2022-09-24T22:28:38.432Z,94.77
2022-09-24T22:31:08.269Z,94.97
2022-09-24T22:33:54.147Z,95.00
2022-09-24T22:36:23.686Z,95.87
2022-09-24T22:38:56.905Z,96.74
2022-09-24T22:41:25.254Z,97.28
2022-09-24T22:43:53.316Z,97.01
2022-09-24T22:46:27.823Z,97.08
2022-09-24T22:48:57.453Z,96.38
2022-09-24T22:51:27.561Z,96.77
2022-09-24T22:54:02.911Z,96.72
2022-09-24T22:56:37.651Z,97.13
2022-09-24T22:59:05.782Z,97.41
2022-09-24T23:01:38.830Z,97.15
2022-09-24T23:04:10.808Z,96.76
2022-09-24T23:06:42.496Z,96.45
2022-09-24T23:09:10.117Z,97.02
2022-09-24T23:11:37.344Z,97.54
2022-09-24T23:14:19.700Z,97.94
2022-09-24T23:16:59.022Z,99.71
2022-09-24T23:19:46.705Z,100.00
2022-09-24T23:22:19.648Z,100.00
2022-09-24T23:24:51.132Z,100.00
2022-09-24T23:27:20.724Z,100.00
2022-09-24T23:29:49.382Z,100.00
2022-09-24T23:32:20.858Z,100.00
2022-09-24T23:34:47.858Z,100.00
2022-09-24T23:37:36.802Z,99.81
2022-09-24T23:40:11.725Z,99.28
2022-09-24T23:42:38.819Z,98.81
2022-09-24T23:45:08.301Z,98.85
2022-09-24T23:47:36.329Z,98.68
2022-09-24T23:50:03.584Z,99.63
2022-09-24T23:52:31.651Z,100.00
2022-09-24T23:54:59.680Z,100.00
2022-09-24T23:57:27.836Z,100.00
2022-09-24T23:59:56.221Z,100.00
